Nissho Maru No.18 — JL6369 — position and weather

sailwx.info

Track history (hours):
 
Tides and Currents Weather Stations Pressure Air Temp Water Temp Dewpoint Dewpoint Depression Visibility Wind Speed Wind Dir Waves Ship Positions

Nissho Maru No.18

Last reported at 2015-Feb-27 08:10 UTC. Time now 2015-Mar-02 15:01 UTC.
Position N 34°36' E 134°54'.

Length 65 m; draft 4 m.

Type: Tanker. MMSI: 431500465.

Date/timePositionNaut miles runAvg speedWind from/ knotsBaromVisibWave heightAir tempDewpointWater temp
2015-Feb-27 08:10N 34°36' E 134°54'6 9.9
2015-Feb-27 07:33N 34°37' E 135°01'9 9.5
2015-Feb-27 06:33N 34°35' E 135°12'9 9.2
2015-Feb-27 05:31N 34°32' E 135°23'2 0.3
2015-Feb-26 23:33N 34°31' E 135°24'4 3.8
2015-Feb-26 22:33N 34°31' E 135°20'0 0.0
2015-Feb-26 21:33N 34°31' E 135°20'0 0.0
2015-Feb-26 20:33N 34°31' E 135°20'2 2.3
2015-Feb-26 19:33N 34°30' E 135°17'1110.3
2015-Feb-26 18:30N 34°23' E 135°08'1010.4
2015-Feb-26 17:33N 34°14' E 135°03'1010.0
2015-Feb-26 16:33N 34°04' E 135°03'230 8.2
2015-Feb-25 12:29N 35°03' E 139°33'1010.3
2015-Feb-25 11:33N 35°08' E 139°43'9 9.4
2015-Feb-25 10:33N 35°17' E 139°45'9 8.9
2015-Feb-25 09:33N 35°26' E 139°44'5 5.3
2015-Feb-25 08:33N 35°31' E 139°45'0 0.0
2015-Feb-25 07:33N 35°31' E 139°45'0 0.0
2015-Feb-25 06:33N 35°31' E 139°45'0 0.4
2015-Feb-25 05:31N 35°31' E 139°45'4 4.5
2015-Feb-25 04:33N 35°27' E 139°43'4 4.0
2015-Feb-25 03:34N 35°24' E 139°40'1 0.9
2015-Feb-25 02:33N 35°25' E 139°39'0 0.0
2015-Feb-25 01:33N 35°25' E 139°39'0 0.0
2015-Feb-25 00:33N 35°25' E 139°39'0 0.0
2015-Feb-24 23:33N 35°25' E 139°39'2 2.1
2015-Feb-24 22:30N 35°23' E 139°40'0 0.0
2015-Feb-24 21:33N 35°23' E 139°40'0 0.0
2015-Feb-24 20:33N 35°23' E 139°40'0 0.0
2015-Feb-24 19:33N 35°23' E 139°40'0 0.0
2015-Feb-24 18:33N 35°23' E 139°40'0 0.0
2015-Feb-24 17:30N 35°23' E 139°40'0 0.0
2015-Feb-24 16:33N 35°23' E 139°40'0 0.0
2015-Feb-24 15:33N 35°23' E 139°40'0 0.0
2015-Feb-24 14:33N 35°23' E 139°40'0 0.0
2015-Feb-24 13:33N 35°23' E 139°40'0 0.0
2015-Feb-24 12:33N 35°23' E 139°40'0 0.0
2015-Feb-24 11:33N 35°23' E 139°40'0 0.0
2015-Feb-24 10:33N 35°23' E 139°40'0 0.0
2015-Feb-24 09:30N 35°23' E 139°40'5 5.4
2015-Feb-24 08:33N 35°27' E 139°43'4 4.2
2015-Feb-24 07:33N 35°31' E 139°45'0 0.0
2015-Feb-24 06:33N 35°31' E 139°45'0 0.0
2015-Feb-24 05:33N 35°31' E 139°45'2 2.3
2015-Feb-24 04:33N 35°29' E 139°43'6 6.0
2015-Feb-24 03:33N 35°24' E 139°39'0 0.3
2015-Feb-24 02:33N 35°25' E 139°39'0 0.0
2015-Feb-24 01:33N 35°25' E 139°39'0 0.0
2015-Feb-24 00:33N 35°25' E 139°39'0 0.0
2015-Feb-23 23:33N 35°25' E 139°39'4 4.4
2015-Feb-23 22:33N 35°21' E 139°41'0 0.1
2015-Feb-23 21:33N 35°21' E 139°41'0 0.0
2015-Feb-23 20:33N 35°21' E 139°41'0 0.0
2015-Feb-23 19:33N 35°21' E 139°41'0 0.0
2015-Feb-23 18:33N 35°21' E 139°41'0 0.0
2015-Feb-23 17:33N 35°21' E 139°41'0 0.0
2015-Feb-23 16:33N 35°21' E 139°41'0 0.0
2015-Feb-23 15:33N 35°21' E 139°41'0 0.0
2015-Feb-23 14:33N 35°21' E 139°41'0 0.0
2015-Feb-23 13:33N 35°21' E 139°41'0 0.0
2015-Feb-23 12:33N 35°21' E 139°41'0 0.0
2015-Feb-23 11:31N 35°21' E 139°41'0 0.0
2015-Feb-23 10:31N 35°21' E 139°41'0 0.0
2015-Feb-23 09:32N 35°21' E 139°41'0 0.1
2015-Feb-23 08:32N 35°21' E 139°41'0 0.0
2015-Feb-23 07:32N 35°21' E 139°41'0 0.0
2015-Feb-23 06:32N 35°21' E 139°41'0 0.1
2015-Feb-23 05:32N 35°21' E 139°41'0 0.0
2015-Feb-23 04:32N 35°21' E 139°41'0 0.0
2015-Feb-23 03:32N 35°21' E 139°41'0 0.0
2015-Feb-23 02:32N 35°21' E 139°41'3 3.5
2015-Feb-23 01:33N 35°24' E 139°42'7 7.1
2015-Feb-23 00:30N 35°31' E 139°45'0 0.0
2015-Feb-22 22:33N 35°31' E 139°45'4 4.1
2015-Feb-22 21:33N 35°29' E 139°49'0 0.1
2015-Feb-22 20:33N 35°29' E 139°49'0 0.0
2015-Feb-22 19:18N 35°29' E 139°49'0 0.0
2015-Feb-22 18:32N 35°29' E 139°49'0 0.0
2015-Feb-22 17:30N 35°29' E 139°49'0 0.0
2015-Feb-22 16:30N 35°29' E 139°49'0 0.0
2015-Feb-22 15:33N 35°29' E 139°49'0 0.0
2015-Feb-22 14:30N 35°29' E 139°49'0 0.0
2015-Feb-22 12:32N 35°29' E 139°49'0 0.1
2015-Feb-22 11:32N 35°29' E 139°49'0 0.0
2015-Feb-22 10:23N 35°29' E 139°49'0 0.0
2015-Feb-22 09:23N 35°29' E 139°49'0 0.0
2015-Feb-22 08:32N 35°29' E 139°49'0 0.1
2015-Feb-22 07:32N 35°29' E 139°49'2 2.1
2015-Feb-22 06:33N 35°28' E 139°47'7 7.4
2015-Feb-22 05:33N 35°25' E 139°39'0 0.0
2015-Feb-22 04:33N 35°25' E 139°39'0 0.0
2015-Feb-22 03:33N 35°25' E 139°39'0 0.0
2015-Feb-22 02:33N 35°25' E 139°39'4 4.1
2015-Feb-22 01:33N 35°27' E 139°43'4 4.3
2015-Feb-22 00:33N 35°31' E 139°45'0 0.0
2015-Feb-21 23:33N 35°31' E 139°45'0 0.0
2015-Feb-21 22:34N 35°31' E 139°45'4 2.8
2015-Feb-21 21:14N 35°29' E 139°49'0 0.0
2015-Feb-21 20:29N 35°29' E 139°49'0 0.0
2015-Feb-21 19:32N 35°29' E 139°49'0 0.0
2015-Feb-21 18:29N 35°29' E 139°49'0 0.0
2015-Feb-21 17:29N 35°29' E 139°49'0 0.0
2015-Feb-21 16:32N 35°29' E 139°49'0 0.0
2015-Feb-21 15:32N 35°29' E 139°49'0 0.0
2015-Feb-21 14:29N 35°29' E 139°49'0 0.0
2015-Feb-21 13:30N 35°29' E 139°49'0 0.0
2015-Feb-21 12:33N 35°29' E 139°49'0 0.0
2015-Feb-21 11:30N 35°29' E 139°49'0 0.0
2015-Feb-21 10:33N 35°29' E 139°49'0 0.0
2015-Feb-21 09:27N 35°29' E 139°49'0 0.1
2015-Feb-21 08:10N 35°29' E 139°49'5 8.7
2015-Feb-21 07:34N 35°26' E 139°43'4 4.0
2015-Feb-21 06:34N 35°25' E 139°39'0 0.0
2015-Feb-21 05:33N 35°25' E 139°39'0 0.0
2015-Feb-21 04:33N 35°25' E 139°39'0 0.0
2015-Feb-21 03:34N 35°25' E 139°39'1 0.9
2015-Feb-21 02:34N 35°24' E 139°39'4 4.3
2015-Feb-21 01:33N 35°27' E 139°43'4 4.3
2015-Feb-21 00:33N 35°31' E 139°45'0 0.0
2015-Feb-20 23:31N 35°31' E 139°45'0 0.0
2015-Feb-20 22:34N 35°31' E 139°45'4 3.2
2015-Feb-20 21:22N 35°29' E 139°49'0 0.0
2015-Feb-20 20:31N 35°29' E 139°49'0 0.0
2015-Feb-20 19:31N 35°29' E 139°49'0 0.0
2015-Feb-20 18:31N 35°29' E 139°49'0 0.0
2015-Feb-20 17:30N 35°29' E 139°49'0 0.0
2015-Feb-20 16:33N 35°29' E 139°49'0 0.0
2015-Feb-20 15:33N 35°29' E 139°49'0 0.0
2015-Feb-20 14:33N 35°29' E 139°49'0 0.0
2015-Feb-20 13:33N 35°29' E 139°49'0 0.0
2015-Feb-20 12:33N 35°29' E 139°49'0 0.0
2015-Feb-20 11:24N 35°29' E 139°49'0 0.0
2015-Feb-20 10:33N 35°29' E 139°49'0 0.1
2015-Feb-20 09:33N 35°29' E 139°49'9 8.7
2015-Feb-20 08:33N 35°24' E 139°40'1 1.3
2015-Feb-20 07:33N 35°25' E 139°39'0 0.0
2015-Feb-20 06:33N 35°25' E 139°39'0 0.0
2015-Feb-20 05:33N 35°25' E 139°39'0 0.0
2015-Feb-20 04:33N 35°25' E 139°39'4 4.0
2015-Feb-20 03:33N 35°21' E 139°41'0 0.0
2015-Feb-20 02:33N 35°21' E 139°41'7 6.8
2015-Feb-20 01:33N 35°28' E 139°42'4 4.1
2015-Feb-20 00:33N 35°31' E 139°45'0 0.0
2015-Feb-19 23:34N 35°31' E 139°45'0 0.0
2015-Feb-19 22:34N 35°31' E 139°45'4 3.6
2015-Feb-19 21:31N 35°29' E 139°49'0 0.0
2015-Feb-19 20:31N 35°29' E 139°49'0 0.0
2015-Feb-19 19:25N 35°29' E 139°49'0 0.1
2015-Feb-19 18:31N 35°29' E 139°49'0 0.1
2015-Feb-19 17:31N 35°29' E 139°49'0 0.0
2015-Feb-19 16:31N 35°29' E 139°49'0 0.0
2015-Feb-19 15:31N 35°29' E 139°49'0 0.0
2015-Feb-19 14:28N 35°29' E 139°49'0 0.0
2015-Feb-19 13:31N 35°29' E 139°49'0 0.0
2015-Feb-19 12:31N 35°29' E 139°49'0 0.0
2015-Feb-19 11:31N 35°29' E 139°49'0 0.0
2015-Feb-19 10:33N 35°29' E 139°49'0 0.0
2015-Feb-19 09:33N 35°29' E 139°49'0 0.0
2015-Feb-19 08:30N 35°29' E 139°49'4 4.2
2015-Feb-19 07:33N 35°26' E 139°45'5 5.3
2015-Feb-19 06:33N 35°25' E 139°39'0 0.0
2015-Feb-19 05:33N 35°25' E 139°39'0 0.0
2015-Feb-19 04:33N 35°25' E 139°39'0 0.0
2015-Feb-19 03:33N 35°25' E 139°39'2 1.7
2015-Feb-19 02:34N 35°24' E 139°40'8 8.1
2015-Feb-19 01:33N 35°31' E 139°45'0 0.2
2015-Feb-19 00:33N 35°31' E 139°45'0 0.0
2015-Feb-18 23:33N 35°31' E 139°45'1 0.6
2015-Feb-18 22:33N 35°31' E 139°45'3 1.6
2015-Feb-18 20:25N 35°29' E 139°49'0 0.0
2015-Feb-18 19:25N 35°29' E 139°49'0 0.0
2015-Feb-18 18:28N 35°29' E 139°49'0 0.1
2015-Feb-18 17:28N 35°29' E 139°49'0 0.0
2015-Feb-18 16:31N 35°29' E 139°49'0 0.0
2015-Feb-18 15:07N 35°29' E 139°49'0 0.0
2015-Feb-18 12:22N 35°29' E 139°49'0 0.0
2015-Feb-18 11:25N 35°29' E 139°49'3 0.8
2015-Feb-18 07:33N 35°27' E 139°46'6 6.1
2015-Feb-18 06:33N 35°25' E 139°39'0 0.0
2015-Feb-18 05:33N 35°25' E 139°39'0 0.0
2015-Feb-18 04:33N 35°25' E 139°39'0 0.0
2015-Feb-18 03:33N 35°25' E 139°39'1 0.9
2015-Feb-18 02:33N 35°24' E 139°40'7 7.4
2015-Feb-18 01:33N 35°30' E 139°45'1 1.1
2015-Feb-18 00:33N 35°31' E 139°45'0 0.0
2015-Feb-17 23:33N 35°31' E 139°45'0 0.2
2015-Feb-17 22:33N 35°31' E 139°45'6 6.2
2015-Feb-17 21:33N 35°25' E 139°43'4 3.6
2015-Feb-17 20:32N 35°22' E 139°40'0 0.0
2015-Feb-17 19:32N 35°22' E 139°40'0 0.0
2015-Feb-17 17:32N 35°22' E 139°40'0 0.0
2015-Feb-17 16:31N 35°22' E 139°40'0 0.0
2015-Feb-17 15:31N 35°22' E 139°40'0 0.0
2015-Feb-17 14:31N 35°22' E 139°40'0 0.0
2015-Feb-17 13:31N 35°22' E 139°40'0 0.0
2015-Feb-17 12:32N 35°22' E 139°40'0 0.0
2015-Feb-17 11:32N 35°22' E 139°40'0 0.0
2015-Feb-17 10:32N 35°22' E 139°40'0 0.0
2015-Feb-17 09:32N 35°22' E 139°40'0 0.0
2015-Feb-17 08:32N 35°22' E 139°40'  
Track history (hours):
 
Tides and Currents Weather Stations Pressure Air Temp Water Temp Dewpoint Dewpoint Depression Visibility Wind Speed Wind Dir Waves Ship Positions

Nissho Maru No.18

Last reported at 2015-Feb-27 08:10 UTC. Time now 2015-Mar-02 15:01 UTC.
Position N 34°36' E 134°54'.

Length 65 m; draft 4 m.

Type: Tanker. MMSI: 431500465.

Date/timePositionNaut miles runAvg speedWind from/ knotsBaromVisibWave heightAir tempDewpointWater temp
2015-Feb-27 08:10N 34°36' E 134°54'6 9.9
2015-Feb-27 07:33N 34°37' E 135°01'9 9.5
2015-Feb-27 06:33N 34°35' E 135°12'9 9.2
2015-Feb-27 05:31N 34°32' E 135°23'2 0.3
2015-Feb-26 23:33N 34°31' E 135°24'4 3.8
2015-Feb-26 22:33N 34°31' E 135°20'0 0.0
2015-Feb-26 21:33N 34°31' E 135°20'0 0.0
2015-Feb-26 20:33N 34°31' E 135°20'2 2.3
2015-Feb-26 19:33N 34°30' E 135°17'1110.3
2015-Feb-26 18:30N 34°23' E 135°08'1010.4
2015-Feb-26 17:33N 34°14' E 135°03'1010.0
2015-Feb-26 16:33N 34°04' E 135°03'230 8.2
2015-Feb-25 12:29N 35°03' E 139°33'1010.3
2015-Feb-25 11:33N 35°08' E 139°43'9 9.4
2015-Feb-25 10:33N 35°17' E 139°45'9 8.9
2015-Feb-25 09:33N 35°26' E 139°44'5 5.3
2015-Feb-25 08:33N 35°31' E 139°45'0 0.0
2015-Feb-25 07:33N 35°31' E 139°45'0 0.0
2015-Feb-25 06:33N 35°31' E 139°45'0 0.4
2015-Feb-25 05:31N 35°31' E 139°45'4 4.5
2015-Feb-25 04:33N 35°27' E 139°43'4 4.0
2015-Feb-25 03:34N 35°24' E 139°40'1 0.9
2015-Feb-25 02:33N 35°25' E 139°39'0 0.0
2015-Feb-25 01:33N 35°25' E 139°39'0 0.0
2015-Feb-25 00:33N 35°25' E 139°39'0 0.0
2015-Feb-24 23:33N 35°25' E 139°39'2 2.1
2015-Feb-24 22:30N 35°23' E 139°40'0 0.0
2015-Feb-24 21:33N 35°23' E 139°40'0 0.0
2015-Feb-24 20:33N 35°23' E 139°40'0 0.0
2015-Feb-24 19:33N 35°23' E 139°40'0 0.0
2015-Feb-24 18:33N 35°23' E 139°40'0 0.0
2015-Feb-24 17:30N 35°23' E 139°40'0 0.0
2015-Feb-24 16:33N 35°23' E 139°40'0 0.0
2015-Feb-24 15:33N 35°23' E 139°40'0 0.0
2015-Feb-24 14:33N 35°23' E 139°40'0 0.0
2015-Feb-24 13:33N 35°23' E 139°40'0 0.0
2015-Feb-24 12:33N 35°23' E 139°40'0 0.0
2015-Feb-24 11:33N 35°23' E 139°40'0 0.0
2015-Feb-24 10:33N 35°23' E 139°40'0 0.0
2015-Feb-24 09:30N 35°23' E 139°40'5 5.4
2015-Feb-24 08:33N 35°27' E 139°43'4 4.2
2015-Feb-24 07:33N 35°31' E 139°45'0 0.0
2015-Feb-24 06:33N 35°31' E 139°45'0 0.0
2015-Feb-24 05:33N 35°31' E 139°45'2 2.3
2015-Feb-24 04:33N 35°29' E 139°43'6 6.0
2015-Feb-24 03:33N 35°24' E 139°39'0 0.3
2015-Feb-24 02:33N 35°25' E 139°39'0 0.0
2015-Feb-24 01:33N 35°25' E 139°39'0 0.0
2015-Feb-24 00:33N 35°25' E 139°39'0 0.0
2015-Feb-23 23:33N 35°25' E 139°39'4 4.4
2015-Feb-23 22:33N 35°21' E 139°41'0 0.1
2015-Feb-23 21:33N 35°21' E 139°41'0 0.0
2015-Feb-23 20:33N 35°21' E 139°41'0 0.0
2015-Feb-23 19:33N 35°21' E 139°41'0 0.0
2015-Feb-23 18:33N 35°21' E 139°41'0 0.0
2015-Feb-23 17:33N 35°21' E 139°41'0 0.0
2015-Feb-23 16:33N 35°21' E 139°41'0 0.0
2015-Feb-23 15:33N 35°21' E 139°41'0 0.0
2015-Feb-23 14:33N 35°21' E 139°41'0 0.0
2015-Feb-23 13:33N 35°21' E 139°41'0 0.0
2015-Feb-23 12:33N 35°21' E 139°41'0 0.0
2015-Feb-23 11:31N 35°21' E 139°41'0 0.0
2015-Feb-23 10:31N 35°21' E 139°41'0 0.0
2015-Feb-23 09:32N 35°21' E 139°41'0 0.1
2015-Feb-23 08:32N 35°21' E 139°41'0 0.0
2015-Feb-23 07:32N 35°21' E 139°41'0 0.0
2015-Feb-23 06:32N 35°21' E 139°41'0 0.1
2015-Feb-23 05:32N 35°21' E 139°41'0 0.0
2015-Feb-23 04:32N 35°21' E 139°41'0 0.0
2015-Feb-23 03:32N 35°21' E 139°41'0 0.0
2015-Feb-23 02:32N 35°21' E 139°41'3 3.5
2015-Feb-23 01:33N 35°24' E 139°42'7 7.1
2015-Feb-23 00:30N 35°31' E 139°45'0 0.0
2015-Feb-22 22:33N 35°31' E 139°45'4 4.1
2015-Feb-22 21:33N 35°29' E 139°49'0 0.1
2015-Feb-22 20:33N 35°29' E 139°49'0 0.0
2015-Feb-22 19:18N 35°29' E 139°49'0 0.0
2015-Feb-22 18:32N 35°29' E 139°49'0 0.0
2015-Feb-22 17:30N 35°29' E 139°49'0 0.0
2015-Feb-22 16:30N 35°29' E 139°49'0 0.0
2015-Feb-22 15:33N 35°29' E 139°49'0 0.0
2015-Feb-22 14:30N 35°29' E 139°49'0 0.0
2015-Feb-22 12:32N 35°29' E 139°49'0 0.1
2015-Feb-22 11:32N 35°29' E 139°49'0 0.0
2015-Feb-22 10:23N 35°29' E 139°49'0 0.0
2015-Feb-22 09:23N 35°29' E 139°49'0 0.0
2015-Feb-22 08:32N 35°29' E 139°49'0 0.1
2015-Feb-22 07:32N 35°29' E 139°49'2 2.1
2015-Feb-22 06:33N 35°28' E 139°47'7 7.4
2015-Feb-22 05:33N 35°25' E 139°39'0 0.0
2015-Feb-22 04:33N 35°25' E 139°39'0 0.0
2015-Feb-22 03:33N 35°25' E 139°39'0 0.0
2015-Feb-22 02:33N 35°25' E 139°39'4 4.1
2015-Feb-22 01:33N 35°27' E 139°43'4 4.3
2015-Feb-22 00:33N 35°31' E 139°45'0 0.0
2015-Feb-21 23:33N 35°31' E 139°45'0 0.0
2015-Feb-21 22:34N 35°31' E 139°45'4 2.8
2015-Feb-21 21:14N 35°29' E 139°49'0 0.0
2015-Feb-21 20:29N 35°29' E 139°49'0 0.0
2015-Feb-21 19:32N 35°29' E 139°49'0 0.0
2015-Feb-21 18:29N 35°29' E 139°49'0 0.0
2015-Feb-21 17:29N 35°29' E 139°49'0 0.0
2015-Feb-21 16:32N 35°29' E 139°49'0 0.0
2015-Feb-21 15:32N 35°29' E 139°49'0 0.0
2015-Feb-21 14:29N 35°29' E 139°49'0 0.0
2015-Feb-21 13:30N 35°29' E 139°49'0 0.0
2015-Feb-21 12:33N 35°29' E 139°49'0 0.0
2015-Feb-21 11:30N 35°29' E 139°49'0 0.0
2015-Feb-21 10:33N 35°29' E 139°49'0 0.0
2015-Feb-21 09:27N 35°29' E 139°49'0 0.1
2015-Feb-21 08:10N 35°29' E 139°49'5 8.7
2015-Feb-21 07:34N 35°26' E 139°43'4 4.0
2015-Feb-21 06:34N 35°25' E 139°39'0 0.0
2015-Feb-21 05:33N 35°25' E 139°39'0 0.0
2015-Feb-21 04:33N 35°25' E 139°39'0 0.0
2015-Feb-21 03:34N 35°25' E 139°39'1 0.9
2015-Feb-21 02:34N 35°24' E 139°39'4 4.3
2015-Feb-21 01:33N 35°27' E 139°43'4 4.3
2015-Feb-21 00:33N 35°31' E 139°45'0 0.0
2015-Feb-20 23:31N 35°31' E 139°45'0 0.0
2015-Feb-20 22:34N 35°31' E 139°45'4 3.2
2015-Feb-20 21:22N 35°29' E 139°49'0 0.0
2015-Feb-20 20:31N 35°29' E 139°49'0 0.0
2015-Feb-20 19:31N 35°29' E 139°49'0 0.0
2015-Feb-20 18:31N 35°29' E 139°49'0 0.0
2015-Feb-20 17:30N 35°29' E 139°49'0 0.0
2015-Feb-20 16:33N 35°29' E 139°49'0 0.0
2015-Feb-20 15:33N 35°29' E 139°49'0 0.0
2015-Feb-20 14:33N 35°29' E 139°49'0 0.0
2015-Feb-20 13:33N 35°29' E 139°49'0 0.0
2015-Feb-20 12:33N 35°29' E 139°49'0 0.0
2015-Feb-20 11:24N 35°29' E 139°49'0 0.0
2015-Feb-20 10:33N 35°29' E 139°49'0 0.1
2015-Feb-20 09:33N 35°29' E 139°49'9 8.7
2015-Feb-20 08:33N 35°24' E 139°40'1 1.3
2015-Feb-20 07:33N 35°25' E 139°39'0 0.0
2015-Feb-20 06:33N 35°25' E 139°39'0 0.0
2015-Feb-20 05:33N 35°25' E 139°39'0 0.0
2015-Feb-20 04:33N 35°25' E 139°39'4 4.0
2015-Feb-20 03:33N 35°21' E 139°41'0 0.0
2015-Feb-20 02:33N 35°21' E 139°41'7 6.8
2015-Feb-20 01:33N 35°28' E 139°42'4 4.1
2015-Feb-20 00:33N 35°31' E 139°45'0 0.0
2015-Feb-19 23:34N 35°31' E 139°45'0 0.0
2015-Feb-19 22:34N 35°31' E 139°45'4 3.6
2015-Feb-19 21:31N 35°29' E 139°49'0 0.0
2015-Feb-19 20:31N 35°29' E 139°49'0 0.0
2015-Feb-19 19:25N 35°29' E 139°49'0 0.1
2015-Feb-19 18:31N 35°29' E 139°49'0 0.1
2015-Feb-19 17:31N 35°29' E 139°49'0 0.0
2015-Feb-19 16:31N 35°29' E 139°49'0 0.0
2015-Feb-19 15:31N 35°29' E 139°49'0 0.0
2015-Feb-19 14:28N 35°29' E 139°49'0 0.0
2015-Feb-19 13:31N 35°29' E 139°49'0 0.0
2015-Feb-19 12:31N 35°29' E 139°49'0 0.0
2015-Feb-19 11:31N 35°29' E 139°49'0 0.0
2015-Feb-19 10:33N 35°29' E 139°49'0 0.0
2015-Feb-19 09:33N 35°29' E 139°49'0 0.0
2015-Feb-19 08:30N 35°29' E 139°49'4 4.2
2015-Feb-19 07:33N 35°26' E 139°45'5 5.3
2015-Feb-19 06:33N 35°25' E 139°39'0 0.0
2015-Feb-19 05:33N 35°25' E 139°39'0 0.0
2015-Feb-19 04:33N 35°25' E 139°39'0 0.0
2015-Feb-19 03:33N 35°25' E 139°39'2 1.7
2015-Feb-19 02:34N 35°24' E 139°40'8 8.1
2015-Feb-19 01:33N 35°31' E 139°45'0 0.2
2015-Feb-19 00:33N 35°31' E 139°45'0 0.0
2015-Feb-18 23:33N 35°31' E 139°45'1 0.6
2015-Feb-18 22:33N 35°31' E 139°45'3 1.6
2015-Feb-18 20:25N 35°29' E 139°49'0 0.0
2015-Feb-18 19:25N 35°29' E 139°49'0 0.0
2015-Feb-18 18:28N 35°29' E 139°49'0 0.1
2015-Feb-18 17:28N 35°29' E 139°49'0 0.0
2015-Feb-18 16:31N 35°29' E 139°49'0 0.0
2015-Feb-18 15:07N 35°29' E 139°49'0 0.0
2015-Feb-18 12:22N 35°29' E 139°49'0 0.0
2015-Feb-18 11:25N 35°29' E 139°49'3 0.8
2015-Feb-18 07:33N 35°27' E 139°46'6 6.1
2015-Feb-18 06:33N 35°25' E 139°39'0 0.0
2015-Feb-18 05:33N 35°25' E 139°39'0 0.0
2015-Feb-18 04:33N 35°25' E 139°39'0 0.0
2015-Feb-18 03:33N 35°25' E 139°39'1 0.9
2015-Feb-18 02:33N 35°24' E 139°40'7 7.4
2015-Feb-18 01:33N 35°30' E 139°45'1 1.1
2015-Feb-18 00:33N 35°31' E 139°45'0 0.0
2015-Feb-17 23:33N 35°31' E 139°45'0 0.2
2015-Feb-17 22:33N 35°31' E 139°45'6 6.2
2015-Feb-17 21:33N 35°25' E 139°43'4 3.6
2015-Feb-17 20:32N 35°22' E 139°40'0 0.0
2015-Feb-17 19:32N 35°22' E 139°40'0 0.0
2015-Feb-17 17:32N 35°22' E 139°40'0 0.0
2015-Feb-17 16:31N 35°22' E 139°40'0 0.0
2015-Feb-17 15:31N 35°22' E 139°40'0 0.0
2015-Feb-17 14:31N 35°22' E 139°40'0 0.0
2015-Feb-17 13:31N 35°22' E 139°40'0 0.0
2015-Feb-17 12:32N 35°22' E 139°40'0 0.0
2015-Feb-17 11:32N 35°22' E 139°40'0 0.0
2015-Feb-17 10:32N 35°22' E 139°40'0 0.0
2015-Feb-17 09:32N 35°22' E 139°40'0 0.0
2015-Feb-17 08:32N 35°22' E 139°40'  

Dump ship's entire track history